sensor_id;sensor_type;location;lat;lon;timestamp;temperature;humidity
20740;DHT22;10530;49.968;19.844;2023-04-03T00:01:09;2.70;99.90
20740;DHT22;10530;49.968;19.844;2023-04-03T00:06:12;2.70;99.90
20740;DHT22;10530;49.968;19.844;2023-04-03T00:11:14;2.70;99.90
20740;DHT22;10530;49.968;19.844;2023-04-03T00:16:17;2.70;99.90
20740;DHT22;10530;49.968;19.844;2023-04-03T00:21:20;2.60;99.90
20740;DHT22;10530;49.968;19.844;2023-04-03T00:26:23;2.60;99.90
20740;DHT22;10530;49.968;19.844;2023-04-03T00:31:25;2.50;99.90
20740;DHT22;10530;49.968;19.844;2023-04-03T00:36:28;2.50;99.90
20740;DHT22;10530;49.968;19.844;2023-04-03T00:41:31;2.50;99.90
20740;DHT22;10530;49.968;19.844;2023-04-03T00:46:34;2.40;99.90
20740;DHT22;10530;49.968;19.844;2023-04-03T00:51:37;2.40;99.90
20740;DHT22;10530;49.968;19.844;2023-04-03T00:56:40;2.40;99.90
20740;DHT22;10530;49.968;19.844;2023-04-03T01:01:43;2.40;99.90
20740;DHT22;10530;49.968;19.844;2023-04-03T01:06:46;2.40;99.90
20740;DHT22;10530;49.968;19.844;2023-04-03T01:11:49;2.30;99.90
20740;DHT22;10530;49.968;19.844;2023-04-03T01:16:55;2.20;99.90
20740;DHT22;10530;49.968;19.844;2023-04-03T01:22:15;2.10;99.90
20740;DHT22;10530;49.968;19.844;2023-04-03T01:27:22;1.90;99.90
20740;DHT22;10530;49.968;19.844;2023-04-03T01:32:24;1.80;99.90
20740;DHT22;10530;49.968;19.844;2023-04-03T01:37:27;1.70;99.90
20740;DHT22;10530;49.968;19.844;2023-04-03T01:42:30;1.70;99.90
20740;DHT22;10530;49.968;19.844;2023-04-03T01:47:33;1.60;99.90
20740;DHT22;10530;49.968;19.844;2023-04-03T01:52:36;1.50;99.90
20740;DHT22;10530;49.968;19.844;2023-04-03T01:57:39;1.50;99.90
20740;DHT22;10530;49.968;19.844;2023-04-03T02:02:42;1.50;99.90
20740;DHT22;10530;49.968;19.844;2023-04-03T02:07:45;1.40;99.90
20740;DHT22;10530;49.968;19.844;2023-04-03T02:12:48;1.40;99.90
20740;DHT22;10530;49.968;19.844;2023-04-03T02:17:50;1.40;99.90
20740;DHT22;10530;49.968;19.844;2023-04-03T02:22:55;1.60;99.90
20740;DHT22;10530;49.968;19.844;2023-04-03T02:27:59;1.60;99.90
20740;DHT22;10530;49.968;19.844;2023-04-03T02:33:02;1.60;99.90
20740;DHT22;10530;49.968;19.844;2023-04-03T02:38:06;1.60;99.90
20740;DHT22;10530;49.968;19.844;2023-04-03T02:43:09;1.70;99.90
20740;DHT22;10530;49.968;19.844;2023-04-03T02:48:12;1.70;99.90
20740;DHT22;10530;49.968;19.844;2023-04-03T02:53:17;1.70;99.90
20740;DHT22;10530;49.968;19.844;2023-04-03T02:58:20;1.70;99.90
20740;DHT22;10530;49.968;19.844;2023-04-03T03:03:23;1.60;99.90
20740;DHT22;10530;49.968;19.844;2023-04-03T03:08:26;1.60;99.90
20740;DHT22;10530;49.968;19.844;2023-04-03T03:13:29;1.50;99.90
20740;DHT22;10530;49.968;19.844;2023-04-03T03:18:32;1.40;99.90
20740;DHT22;10530;49.968;19.844;2023-04-03T03:23:36;1.40;99.90
20740;DHT22;10530;49.968;19.844;2023-04-03T03:28:40;1.30;99.90
20740;DHT22;10530;49.968;19.844;2023-04-03T03:33:43;1.30;99.90
20740;DHT22;10530;49.968;19.844;2023-04-03T03:38:46;1.30;99.90
20740;DHT22;10530;49.968;19.844;2023-04-03T03:43:49;1.30;99.90
20740;DHT22;10530;49.968;19.844;2023-04-03T03:48:52;1.30;99.90
20740;DHT22;10530;49.968;19.844;2023-04-03T03:53:54;1.40;99.90
20740;DHT22;10530;49.968;19.844;2023-04-03T03:58:57;1.30;99.90
20740;DHT22;10530;49.968;19.844;2023-04-03T04:04:00;1.30;99.90
20740;DHT22;10530;49.968;19.844;2023-04-03T04:09:05;1.20;99.90
20740;DHT22;10530;49.968;19.844;2023-04-03T04:14:09;1.10;99.90
20740;DHT22;10530;49.968;19.844;2023-04-03T04:19:13;1.00;99.90
20740;DHT22;10530;49.968;19.844;2023-04-03T04:24:18;1.10;99.90
20740;DHT22;10530;49.968;19.844;2023-04-03T04:29:23;1.10;99.90
20740;DHT22;10530;49.968;19.844;2023-04-03T04:34:27;1.10;99.90
20740;DHT22;10530;49.968;19.844;2023-04-03T04:39:30;1.10;99.90
20740;DHT22;10530;49.968;19.844;2023-04-03T04:44:33;1.10;99.90
20740;DHT22;10530;49.968;19.844;2023-04-03T04:49:36;1.10;99.90
20740;DHT22;10530;49.968;19.844;2023-04-03T04:54:40;1.10;99.90
20740;DHT22;10530;49.968;19.844;2023-04-03T04:59:44;1.00;99.90
20740;DHT22;10530;49.968;19.844;2023-04-03T05:04:46;1.10;99.90
20740;DHT22;10530;49.968;19.844;2023-04-03T05:09:54;1.00;99.90
20740;DHT22;10530;49.968;19.844;2023-04-03T05:14:58;1.00;99.90
20740;DHT22;10530;49.968;19.844;2023-04-03T05:20:03;1.10;99.90
20740;DHT22;10530;49.968;19.844;2023-04-03T05:25:09;1.20;99.90
20740;DHT22;10530;49.968;19.844;2023-04-03T05:30:14;1.30;99.90
20740;DHT22;10530;49.968;19.844;2023-04-03T05:35:17;1.50;99.90
20740;DHT22;10530;49.968;19.844;2023-04-03T05:40:22;1.60;99.90
20740;DHT22;10530;49.968;19.844;2023-04-03T05:45:28;1.70;99.90
20740;DHT22;10530;49.968;19.844;2023-04-03T05:50:33;1.60;99.90
20740;DHT22;10530;49.968;19.844;2023-04-03T05:55:37;1.60;99.90
20740;DHT22;10530;49.968;19.844;2023-04-03T06:00:40;1.40;99.90
20740;DHT22;10530;49.968;19.844;2023-04-03T06:05:44;1.30;99.90
20740;DHT22;10530;49.968;19.844;2023-04-03T06:10:47;1.30;99.90
20740;DHT22;10530;49.968;19.844;2023-04-03T06:15:50;1.20;99.90
20740;DHT22;10530;49.968;19.844;2023-04-03T06:20:53;1.00;99.90
20740;DHT22;10530;49.968;19.844;2023-04-03T06:25:56;0.90;99.90
20740;DHT22;10530;49.968;19.844;2023-04-03T06:30:59;0.70;99.90
20740;DHT22;10530;49.968;19.844;2023-04-03T06:36:04;0.90;99.90
20740;DHT22;10530;49.968;19.844;2023-04-03T06:41:07;1.10;99.90
20740;DHT22;10530;49.968;19.844;2023-04-03T06:46:21;1.00;99.90
20740;DHT22;10530;49.968;19.844;2023-04-03T06:51:26;1.20;99.90
20740;DHT22;10530;49.968;19.844;2023-04-03T06:56:30;1.20;99.90
20740;DHT22;10530;49.968;19.844;2023-04-03T07:01:33;1.30;99.90
20740;DHT22;10530;49.968;19.844;2023-04-03T07:06:35;1.70;99.90
20740;DHT22;10530;49.968;19.844;2023-04-03T07:11:38;1.80;99.90
20740;DHT22;10530;49.968;19.844;2023-04-03T07:16:42;1.90;99.90
20740;DHT22;10530;49.968;19.844;2023-04-03T07:21:44;2.00;99.90
20740;DHT22;10530;49.968;19.844;2023-04-03T07:26:52;2.00;99.90
20740;DHT22;10530;49.968;19.844;2023-04-03T07:31:55;2.40;99.90
20740;DHT22;10530;49.968;19.844;2023-04-03T07:36:58;2.80;99.90
20740;DHT22;10530;49.968;19.844;2023-04-03T07:42:02;2.70;99.90
20740;DHT22;10530;49.968;19.844;2023-04-03T07:47:05;2.50;99.90
20740;DHT22;10530;49.968;19.844;2023-04-03T07:52:08;2.60;99.90
20740;DHT22;10530;49.968;19.844;2023-04-03T07:57:11;2.70;99.90
20740;DHT22;10530;49.968;19.844;2023-04-03T08:02:14;2.90;99.90
20740;DHT22;10530;49.968;19.844;2023-04-03T08:07:17;3.10;99.90
20740;DHT22;10530;49.968;19.844;2023-04-03T08:12:20;3.30;99.90
20740;DHT22;10530;49.968;19.844;2023-04-03T08:17:23;4.10;99.90
20740;DHT22;10530;49.968;19.844;2023-04-03T08:22:26;4.70;99.90
20740;DHT22;10530;49.968;19.844;2023-04-03T08:27:29;5.10;99.90
20740;DHT22;10530;49.968;19.844;2023-04-03T08:32:33;5.10;99.90
20740;DHT22;10530;49.968;19.844;2023-04-03T08:37:38;4.60;99.90
20740;DHT22;10530;49.968;19.844;2023-04-03T08:48:08;4.60;99.90
20740;DHT22;10530;49.968;19.844;2023-04-03T08:53:21;4.20;99.90
20740;DHT22;10530;49.968;19.844;2023-04-03T08:58:33;4.20;99.90
20740;DHT22;10530;49.968;19.844;2023-04-03T09:03:39;3.50;99.90
20740;DHT22;10530;49.968;19.844;2023-04-03T09:08:45;3.60;99.90
20740;DHT22;10530;49.968;19.844;2023-04-03T09:14:01;3.90;99.90
20740;DHT22;10530;49.968;19.844;2023-04-03T09:19:15;3.60;99.90
20740;DHT22;10530;49.968;19.844;2023-04-03T09:24:22;3.40;99.90
20740;DHT22;10530;49.968;19.844;2023-04-03T09:29:26;3.30;99.90
20740;DHT22;10530;49.968;19.844;2023-04-03T09:34:36;3.30;99.90
20740;DHT22;10530;49.968;19.844;2023-04-03T09:39:53;3.00;99.90
20740;DHT22;10530;49.968;19.844;2023-04-03T09:45:02;2.70;99.90
20740;DHT22;10530;49.968;19.844;2023-04-03T09:50:19;2.80;99.90
20740;DHT22;10530;49.968;19.844;2023-04-03T09:55:24;3.00;99.90
20740;DHT22;10530;49.968;19.844;2023-04-03T10:00:38;2.80;99.90
20740;DHT22;10530;49.968;19.844;2023-04-03T10:05:42;2.40;99.90
20740;DHT22;10530;49.968;19.844;2023-04-03T10:10:47;2.60;99.90
20740;DHT22;10530;49.968;19.844;2023-04-03T10:15:59;2.70;99.90
20740;DHT22;10530;49.968;19.844;2023-04-03T10:21:24;2.70;99.90
20740;DHT22;10530;49.968;19.844;2023-04-03T10:26:44;2.70;99.90
20740;DHT22;10530;49.968;19.844;2023-04-03T10:32:08;2.70;99.90
20740;DHT22;10530;49.968;19.844;2023-04-03T10:42:35;3.10;99.90
20740;DHT22;10530;49.968;19.844;2023-04-03T10:48:00;3.30;99.90
20740;DHT22;10530;49.968;19.844;2023-04-03T10:53:14;3.20;99.90
20740;DHT22;10530;49.968;19.844;2023-04-03T10:58:43;3.00;99.90
20740;DHT22;10530;49.968;19.844;2023-04-03T11:03:51;3.10;99.90
20740;DHT22;10530;49.968;19.844;2023-04-03T11:09:31;3.30;99.90
20740;DHT22;10530;49.968;19.844;2023-04-03T11:14:36;3.20;99.90
20740;DHT22;10530;49.968;19.844;2023-04-03T11:20:00;3.20;99.90
20740;DHT22;10530;49.968;19.844;2023-04-03T11:35:27;3.30;99.90
20740;DHT22;10530;49.968;19.844;2023-04-03T11:40:35;2.80;99.90
20740;DHT22;10530;49.968;19.844;2023-04-03T11:45:54;2.80;99.90
20740;DHT22;10530;49.968;19.844;2023-04-03T11:51:02;3.00;99.90
20740;DHT22;10530;49.968;19.844;2023-04-03T12:01:55;4.00;99.90
20740;DHT22;10530;49.968;19.844;2023-04-03T12:07:12;3.60;99.90
20740;DHT22;10530;49.968;19.844;2023-04-03T12:12:24;4.50;99.90
20740;DHT22;10530;49.968;19.844;2023-04-03T12:17:28;6.10;99.90
20740;DHT22;10530;49.968;19.844;2023-04-03T12:22:32;5.90;99.90
20740;DHT22;10530;49.968;19.844;2023-04-03T12:27:40;6.40;99.90
20740;DHT22;10530;49.968;19.844;2023-04-03T12:48:57;6.10;71.40
20740;DHT22;10530;49.968;19.844;2023-04-03T12:54:36;6.00;65.10
20740;DHT22;10530;49.968;19.844;2023-04-03T12:59:35;6.70;58.10
20740;DHT22;10530;49.968;19.844;2023-04-03T13:04:39;7.20;58.50
20740;DHT22;10530;49.968;19.844;2023-04-03T13:09:42;7.30;54.20
20740;DHT22;10530;49.968;19.844;2023-04-03T13:14:57;7.90;59.30
20740;DHT22;10530;49.968;19.844;2023-04-03T13:20:33;7.50;53.20
20740;DHT22;10530;49.968;19.844;2023-04-03T13:25:41;7.70;53.70
20740;DHT22;10530;49.968;19.844;2023-04-03T13:41:37;7.20;50.00
20740;DHT22;10530;49.968;19.844;2023-04-03T13:46:40;6.60;50.60
20740;DHT22;10530;49.968;19.844;2023-04-03T13:51:43;5.80;55.20
20740;DHT22;10530;49.968;19.844;2023-04-03T13:56:55;5.80;54.10
20740;DHT22;10530;49.968;19.844;2023-04-03T14:07:05;5.90;56.20
20740;DHT22;10530;49.968;19.844;2023-04-03T14:12:15;5.30;57.00
20740;DHT22;10530;49.968;19.844;2023-04-03T14:17:32;5.20;56.30
20740;DHT22;10530;49.968;19.844;2023-04-03T14:22:35;5.20;58.10
20740;DHT22;10530;49.968;19.844;2023-04-03T14:27:41;5.00;60.70
20740;DHT22;10530;49.968;19.844;2023-04-03T14:32:45;5.00;60.30
20740;DHT22;10530;49.968;19.844;2023-04-03T14:37:51;4.40;60.70
20740;DHT22;10530;49.968;19.844;2023-04-03T14:42:56;4.40;62.40
20740;DHT22;10530;49.968;19.844;2023-04-03T14:47:59;4.50;64.50
20740;DHT22;10530;49.968;19.844;2023-04-03T14:53:02;4.80;62.10
20740;DHT22;10530;49.968;19.844;2023-04-03T14:58:05;4.90;63.40
20740;DHT22;10530;49.968;19.844;2023-04-03T15:03:21;4.90;63.00
20740;DHT22;10530;49.968;19.844;2023-04-03T15:08:27;5.00;60.60
20740;DHT22;10530;49.968;19.844;2023-04-03T15:13:33;5.00;60.10
20740;DHT22;10530;49.968;19.844;2023-04-03T15:18:38;4.70;58.50
20740;DHT22;10530;49.968;19.844;2023-04-03T15:23:40;4.40;58.60
20740;DHT22;10530;49.968;19.844;2023-04-03T15:28:44;4.30;56.50
20740;DHT22;10530;49.968;19.844;2023-04-03T15:33:47;4.70;56.70
20740;DHT22;10530;49.968;19.844;2023-04-03T15:38:50;4.60;54.10
20740;DHT22;10530;49.968;19.844;2023-04-03T15:43:53;4.30;59.30
20740;DHT22;10530;49.968;19.844;2023-04-03T15:48:56;4.00;56.70
20740;DHT22;10530;49.968;19.844;2023-04-03T15:53:59;3.90;57.30
20740;DHT22;10530;49.968;19.844;2023-04-03T15:59:02;3.70;58.90
20740;DHT22;10530;49.968;19.844;2023-04-03T16:04:06;3.50;58.80
20740;DHT22;10530;49.968;19.844;2023-04-03T16:09:10;3.40;60.10
20740;DHT22;10530;49.968;19.844;2023-04-03T16:14:13;3.30;61.80
20740;DHT22;10530;49.968;19.844;2023-04-03T16:19:16;3.20;60.30
20740;DHT22;10530;49.968;19.844;2023-04-03T16:24:19;3.10;60.70
20740;DHT22;10530;49.968;19.844;2023-04-03T16:29:22;3.00;61.40
20740;DHT22;10530;49.968;19.844;2023-04-03T16:34:24;3.00;62.70
20740;DHT22;10530;49.968;19.844;2023-04-03T16:39:28;3.00;63.40
20740;DHT22;10530;49.968;19.844;2023-04-03T16:44:31;3.00;61.90
20740;DHT22;10530;49.968;19.844;2023-04-03T16:49:34;2.90;60.40
20740;DHT22;10530;49.968;19.844;2023-04-03T16:54:37;3.00;57.70
20740;DHT22;10530;49.968;19.844;2023-04-03T16:59:40;3.00;59.20
20740;DHT22;10530;49.968;19.844;2023-04-03T17:04:42;2.90;59.00
20740;DHT22;10530;49.968;19.844;2023-04-03T17:09:45;2.80;62.00
20740;DHT22;10530;49.968;19.844;2023-04-03T17:14:48;2.70;61.80
20740;DHT22;10530;49.968;19.844;2023-04-03T17:19:52;2.70;63.80
20740;DHT22;10530;49.968;19.844;2023-04-03T17:24:56;2.60;64.00
20740;DHT22;10530;49.968;19.844;2023-04-03T17:29:59;2.50;65.70
20740;DHT22;10530;49.968;19.844;2023-04-03T17:35:02;2.40;65.60
20740;DHT22;10530;49.968;19.844;2023-04-03T17:40:05;2.30;66.70
20740;DHT22;10530;49.968;19.844;2023-04-03T17:45:08;2.20;68.80
20740;DHT22;10530;49.968;19.844;2023-04-03T17:50:11;2.10;70.50
20740;DHT22;10530;49.968;19.844;2023-04-03T17:55:17;2.00;70.90
20740;DHT22;10530;49.968;19.844;2023-04-03T18:00:20;1.90;75.40
20740;DHT22;10530;49.968;19.844;2023-04-03T18:05:27;1.70;77.30
20740;DHT22;10530;49.968;19.844;2023-04-03T18:10:30;1.60;80.50
20740;DHT22;10530;49.968;19.844;2023-04-03T18:15:33;1.40;83.40
20740;DHT22;10530;49.968;19.844;2023-04-03T18:20:36;1.30;87.70
20740;DHT22;10530;49.968;19.844;2023-04-03T18:25:39;1.20;94.10
20740;DHT22;10530;49.968;19.844;2023-04-03T18:30:42;1.10;96.10
20740;DHT22;10530;49.968;19.844;2023-04-03T18:35:45;1.00;99.90
20740;DHT22;10530;49.968;19.844;2023-04-03T18:40:48;1.00;99.90
20740;DHT22;10530;49.968;19.844;2023-04-03T18:45:52;0.90;99.90
20740;DHT22;10530;49.968;19.844;2023-04-03T18:50:55;0.70;99.90
20740;DHT22;10530;49.968;19.844;2023-04-03T18:55:58;0.60;99.90
20740;DHT22;10530;49.968;19.844;2023-04-03T19:01:01;0.60;99.90
20740;DHT22;10530;49.968;19.844;2023-04-03T19:06:04;0.60;99.90
20740;DHT22;10530;49.968;19.844;2023-04-03T19:11:08;0.50;99.90
20740;DHT22;10530;49.968;19.844;2023-04-03T19:16:11;0.40;99.90
20740;DHT22;10530;49.968;19.844;2023-04-03T19:21:14;0.50;99.90
20740;DHT22;10530;49.968;19.844;2023-04-03T19:26:18;0.30;99.90
20740;DHT22;10530;49.968;19.844;2023-04-03T19:31:22;0.30;99.90
20740;DHT22;10530;49.968;19.844;2023-04-03T19:36:25;0.40;99.90
20740;DHT22;10530;49.968;19.844;2023-04-03T19:41:30;0.50;99.90
20740;DHT22;10530;49.968;19.844;2023-04-03T19:46:34;0.50;99.90
20740;DHT22;10530;49.968;19.844;2023-04-03T19:51:38;0.60;99.90
20740;DHT22;10530;49.968;19.844;2023-04-03T19:56:41;0.80;99.90
20740;DHT22;10530;49.968;19.844;2023-04-03T20:01:44;0.80;99.90
20740;DHT22;10530;49.968;19.844;2023-04-03T20:06:50;0.80;99.90
20740;DHT22;10530;49.968;19.844;2023-04-03T20:11:53;0.80;99.90
20740;DHT22;10530;49.968;19.844;2023-04-03T20:16:58;0.80;99.90
20740;DHT22;10530;49.968;19.844;2023-04-03T20:22:00;0.90;99.90
20740;DHT22;10530;49.968;19.844;2023-04-03T20:27:03;1.00;99.90
20740;DHT22;10530;49.968;19.844;2023-04-03T20:32:07;0.90;99.90
20740;DHT22;10530;49.968;19.844;2023-04-03T20:37:12;0.80;99.90
20740;DHT22;10530;49.968;19.844;2023-04-03T20:42:16;0.90;99.90
20740;DHT22;10530;49.968;19.844;2023-04-03T20:47:19;0.80;99.90
20740;DHT22;10530;49.968;19.844;2023-04-03T20:52:22;0.90;99.90
20740;DHT22;10530;49.968;19.844;2023-04-03T20:57:25;0.90;99.90
20740;DHT22;10530;49.968;19.844;2023-04-03T21:02:31;0.90;99.90
20740;DHT22;10530;49.968;19.844;2023-04-03T21:24:09;0.80;99.90
20740;DHT22;10530;49.968;19.844;2023-04-03T21:29:12;0.90;99.90
20740;DHT22;10530;49.968;19.844;2023-04-03T21:34:16;0.90;99.90
20740;DHT22;10530;49.968;19.844;2023-04-03T21:39:19;0.90;99.90
20740;DHT22;10530;49.968;19.844;2023-04-03T21:44:23;0.90;99.90
20740;DHT22;10530;49.968;19.844;2023-04-03T21:49:26;0.90;99.90
20740;DHT22;10530;49.968;19.844;2023-04-03T21:54:31;1.00;99.90
20740;DHT22;10530;49.968;19.844;2023-04-03T21:59:35;0.90;99.90
20740;DHT22;10530;49.968;19.844;2023-04-03T22:04:39;1.00;99.90
20740;DHT22;10530;49.968;19.844;2023-04-03T22:09:42;0.90;99.90
20740;DHT22;10530;49.968;19.844;2023-04-03T22:14:45;0.90;99.90
20740;DHT22;10530;49.968;19.844;2023-04-03T22:19:48;0.90;99.90
20740;DHT22;10530;49.968;19.844;2023-04-03T22:24:51;0.80;99.90
20740;DHT22;10530;49.968;19.844;2023-04-03T22:29:54;0.80;99.90
20740;DHT22;10530;49.968;19.844;2023-04-03T22:34:58;0.80;99.90
20740;DHT22;10530;49.968;19.844;2023-04-03T22:40:01;0.70;99.90
20740;DHT22;10530;49.968;19.844;2023-04-03T22:45:05;0.80;99.90
20740;DHT22;10530;49.968;19.844;2023-04-03T22:50:09;0.70;99.90
20740;DHT22;10530;49.968;19.844;2023-04-03T22:55:12;0.70;99.90
20740;DHT22;10530;49.968;19.844;2023-04-03T23:00:21;0.70;99.90
20740;DHT22;10530;49.968;19.844;2023-04-03T23:05:24;0.80;99.90
20740;DHT22;10530;49.968;19.844;2023-04-03T23:10:27;0.80;99.90
20740;DHT22;10530;49.968;19.844;2023-04-03T23:15:29;0.70;99.90
20740;DHT22;10530;49.968;19.844;2023-04-03T23:20:32;0.70;99.90
20740;DHT22;10530;49.968;19.844;2023-04-03T23:25:35;0.60;99.90
20740;DHT22;10530;49.968;19.844;2023-04-03T23:30:39;0.60;99.90
20740;DHT22;10530;49.968;19.844;2023-04-03T23:35:43;0.60;99.90
20740;DHT22;10530;49.968;19.844;2023-04-03T23:40:47;0.60;99.90
20740;DHT22;10530;49.968;19.844;2023-04-03T23:45:50;0.60;99.90
20740;DHT22;10530;49.968;19.844;2023-04-03T23:50:54;0.50;99.90
20740;DHT22;10530;49.968;19.844;2023-04-03T23:55:56;0.40;99.90
